Woodbranch, Texas
Current Conditions -  °F | °C
As of 8:53 PM on Saturday 24 Jan 2015 (Local Time) from KIAH Reporting Station
Few Clouds Few Clouds  
Wind Chill: 52°   Ceiling: Unl
Heat Index: 52°   Visibility: 10mi
Dew Point: 39°   Wind: 5mph
Humidity: 61%   Direction: 240°WSW
Pressure: 30.1"   Gusts: NA
Location:  30.1594°N, 95.1973°W
Report Text: KIAH 250253Z 24004KT 10SM FEW250 11/04 A3010 RMK AO2 SLP192 T01110039 58002
Loading
Personal Weather Stations






























Interactive Weather Map New forecast layout! Learn more

10-Day Weather Forecast

Advertisements
Track Severe Weather on mobile